sensor_id;sensor_type;location;lat;lon;timestamp;pressure;altitude;pressure_sealevel;temperature;humidity
59608;BME280;45426;44.726;10.390;2023-01-30T00:01:39;101346.78;;;-0.77;100.00
59608;BME280;45426;44.726;10.390;2023-01-30T00:04:04;101356.16;;;-0.75;100.00
59608;BME280;45426;44.726;10.390;2023-01-30T00:06:30;101347.13;;;-1.21;100.00
59608;BME280;45426;44.726;10.390;2023-01-30T00:08:55;101343.06;;;-1.35;100.00
59608;BME280;45426;44.726;10.390;2023-01-30T00:11:21;101339.94;;;-1.32;100.00
59608;BME280;45426;44.726;10.390;2023-01-30T00:13:48;101333.94;;;-1.04;100.00
59608;BME280;45426;44.726;10.390;2023-01-30T00:16:14;101331.53;;;-0.53;100.00
59608;BME280;45426;44.726;10.390;2023-01-30T00:18:40;101330.56;;;-0.88;100.00
59608;BME280;45426;44.726;10.390;2023-01-30T00:21:08;101314.72;;;-0.54;100.00
59608;BME280;45426;44.726;10.390;2023-01-30T00:23:35;101312.84;;;-0.53;100.00
59608;BME280;45426;44.726;10.390;2023-01-30T00:26:01;101325.56;;;-0.72;100.00
59608;BME280;45426;44.726;10.390;2023-01-30T00:28:27;101315.78;;;-0.67;100.00
59608;BME280;45426;44.726;10.390;2023-01-30T00:30:54;101318.34;;;-0.72;100.00
59608;BME280;45426;44.726;10.390;2023-01-30T00:33:21;101310.81;;;-0.87;100.00
59608;BME280;45426;44.726;10.390;2023-01-30T00:35:49;101316.03;;;-1.27;100.00
59608;BME280;45426;44.726;10.390;2023-01-30T00:38:15;101318.16;;;-1.06;100.00
59608;BME280;45426;44.726;10.390;2023-01-30T00:40:41;101316.06;;;-1.15;100.00
59608;BME280;45426;44.726;10.390;2023-01-30T00:43:09;101306.66;;;-1.18;100.00
59608;BME280;45426;44.726;10.390;2023-01-30T00:45:54;101304.69;;;-1.11;100.00
59608;BME280;45426;44.726;10.390;2023-01-30T00:48:38;101304.59;;;-1.04;100.00
59608;BME280;45426;44.726;10.390;2023-01-30T00:51:03;101296.44;;;-1.33;100.00
59608;BME280;45426;44.726;10.390;2023-01-30T00:53:29;101301.91;;;-1.16;100.00
59608;BME280;45426;44.726;10.390;2023-01-30T00:55:55;101305.72;;;-1.24;100.00
59608;BME280;45426;44.726;10.390;2023-01-30T00:58:21;101299.13;;;-1.33;100.00
59608;BME280;45426;44.726;10.390;2023-01-30T01:00:48;101287.53;;;-1.15;100.00
59608;BME280;45426;44.726;10.390;2023-01-30T01:03:14;101283.34;;;-1.46;100.00
59608;BME280;45426;44.726;10.390;2023-01-30T01:05:39;101283.81;;;-1.38;100.00
59608;BME280;45426;44.726;10.390;2023-01-30T01:08:05;101291.72;;;-1.19;100.00
59608;BME280;45426;44.726;10.390;2023-01-30T01:10:31;101289.63;;;-1.17;100.00
59608;BME280;45426;44.726;10.390;2023-01-30T01:12:57;101289.97;;;-1.02;100.00
59608;BME280;45426;44.726;10.390;2023-01-30T01:15:23;101287.09;;;-1.12;100.00
59608;BME280;45426;44.726;10.390;2023-01-30T01:17:50;101269.88;;;-0.92;100.00
59608;BME280;45426;44.726;10.390;2023-01-30T01:20:16;101282.09;;;-1.08;100.00
59608;BME280;45426;44.726;10.390;2023-01-30T01:22:42;101273.06;;;-1.19;100.00
59608;BME280;45426;44.726;10.390;2023-01-30T01:25:09;101274.09;;;-1.08;100.00
59608;BME280;45426;44.726;10.390;2023-01-30T01:27:35;101274.66;;;-1.30;100.00
59608;BME280;45426;44.726;10.390;2023-01-30T01:30:00;101283.13;;;-1.33;100.00
59608;BME280;45426;44.726;10.390;2023-01-30T01:32:26;101275.25;;;-1.40;100.00
59608;BME280;45426;44.726;10.390;2023-01-30T01:34:51;101273.16;;;-1.38;100.00
59608;BME280;45426;44.726;10.390;2023-01-30T01:37:17;101280.81;;;-1.29;100.00
59608;BME280;45426;44.726;10.390;2023-01-30T01:39:42;101275.72;;;-1.43;100.00
59608;BME280;45426;44.726;10.390;2023-01-30T01:42:29;101272.22;;;-1.08;100.00
59608;BME280;45426;44.726;10.390;2023-01-30T01:45:01;101260.38;;;-0.88;100.00
59608;BME280;45426;44.726;10.390;2023-01-30T01:47:30;101268.41;;;-1.24;100.00
59608;BME280;45426;44.726;10.390;2023-01-30T01:49:57;101268.53;;;-1.30;100.00
59608;BME280;45426;44.726;10.390;2023-01-30T01:52:23;101261.94;;;-0.64;100.00
59608;BME280;45426;44.726;10.390;2023-01-30T01:55:00;101260.84;;;-0.51;100.00
59608;BME280;45426;44.726;10.390;2023-01-30T01:57:33;101256.44;;;-0.98;100.00
59608;BME280;45426;44.726;10.390;2023-01-30T02:02:37;101262.69;;;-1.74;100.00
59608;BME280;45426;44.726;10.390;2023-01-30T02:05:05;101258.50;;;-1.82;100.00
59608;BME280;45426;44.726;10.390;2023-01-30T02:07:36;101262.22;;;-1.83;100.00
59608;BME280;45426;44.726;10.390;2023-01-30T02:10:05;101255.75;;;-2.18;100.00
59608;BME280;45426;44.726;10.390;2023-01-30T02:12:31;101255.69;;;-1.99;100.00
59608;BME280;45426;44.726;10.390;2023-01-30T02:14:57;101256.00;;;-1.65;100.00
59608;BME280;45426;44.726;10.390;2023-01-30T02:17:24;101252.75;;;-1.32;100.00
59608;BME280;45426;44.726;10.390;2023-01-30T02:47:24;101205.13;;;-1.28;100.00
59608;BME280;45426;44.726;10.390;2023-01-30T02:49:59;101203.19;;;-0.92;100.00
59608;BME280;45426;44.726;10.390;2023-01-30T02:52:27;101196.34;;;-0.88;100.00
59608;BME280;45426;44.726;10.390;2023-01-30T02:54:53;101193.09;;;-0.90;100.00
59608;BME280;45426;44.726;10.390;2023-01-30T02:57:20;101201.81;;;-0.95;100.00
59608;BME280;45426;44.726;10.390;2023-01-30T02:59:48;101198.47;;;-1.02;100.00
59608;BME280;45426;44.726;10.390;2023-01-30T03:02:38;101189.59;;;-0.79;100.00
59608;BME280;45426;44.726;10.390;2023-01-30T03:05:41;101183.66;;;-1.10;100.00
59608;BME280;45426;44.726;10.390;2023-01-30T03:08:19;101180.72;;;-0.96;100.00
59608;BME280;45426;44.726;10.390;2023-01-30T03:10:59;101178.78;;;-1.13;100.00
59608;BME280;45426;44.726;10.390;2023-01-30T03:13:51;101178.34;;;-1.33;100.00
59608;BME280;45426;44.726;10.390;2023-01-30T03:16:38;101172.78;;;-1.32;100.00
59608;BME280;45426;44.726;10.390;2023-01-30T03:19:08;101167.25;;;-1.54;100.00
59608;BME280;45426;44.726;10.390;2023-01-30T03:21:39;101166.66;;;-1.80;100.00
59608;BME280;45426;44.726;10.390;2023-01-30T03:24:05;101165.75;;;-1.73;100.00
59608;BME280;45426;44.726;10.390;2023-01-30T03:26:33;101160.59;;;-1.28;100.00
59608;BME280;45426;44.726;10.390;2023-01-30T03:29:01;101162.78;;;-1.13;100.00
59608;BME280;45426;44.726;10.390;2023-01-30T03:31:26;101155.53;;;-0.89;100.00
59608;BME280;45426;44.726;10.390;2023-01-30T03:33:52;101160.69;;;-1.11;100.00
59608;BME280;45426;44.726;10.390;2023-01-30T03:36:17;101162.72;;;-1.01;100.00
59608;BME280;45426;44.726;10.390;2023-01-30T03:38:43;101159.19;;;-1.19;100.00
59608;BME280;45426;44.726;10.390;2023-01-30T03:41:08;101154.03;;;-0.96;100.00
59608;BME280;45426;44.726;10.390;2023-01-30T03:43:34;101158.38;;;-1.19;100.00
59608;BME280;45426;44.726;10.390;2023-01-30T03:45:59;101157.59;;;-1.31;100.00
59608;BME280;45426;44.726;10.390;2023-01-30T03:48:25;101155.41;;;-1.34;100.00
59608;BME280;45426;44.726;10.390;2023-01-30T03:50:50;101151.81;;;-1.52;100.00
59608;BME280;45426;44.726;10.390;2023-01-30T03:53:16;101151.25;;;-1.54;100.00
59608;BME280;45426;44.726;10.390;2023-01-30T03:55:43;101145.31;;;-1.44;100.00
59608;BME280;45426;44.726;10.390;2023-01-30T03:58:08;101143.66;;;-1.22;100.00
59608;BME280;45426;44.726;10.390;2023-01-30T04:00:34;101146.22;;;-1.15;100.00
59608;BME280;45426;44.726;10.390;2023-01-30T04:02:59;101147.66;;;-1.36;100.00
59608;BME280;45426;44.726;10.390;2023-01-30T04:05:25;101135.53;;;-1.15;100.00
59608;BME280;45426;44.726;10.390;2023-01-30T04:07:50;101136.31;;;-1.03;100.00
59608;BME280;45426;44.726;10.390;2023-01-30T04:10:16;101134.91;;;-1.58;100.00
59608;BME280;45426;44.726;10.390;2023-01-30T04:12:44;101129.03;;;-1.71;100.00
59608;BME280;45426;44.726;10.390;2023-01-30T04:15:10;101127.50;;;-1.56;100.00
59608;BME280;45426;44.726;10.390;2023-01-30T04:17:36;101124.41;;;-1.64;100.00
59608;BME280;45426;44.726;10.390;2023-01-30T04:20:02;101116.38;;;-1.52;100.00
59608;BME280;45426;44.726;10.390;2023-01-30T04:22:27;101123.34;;;-1.51;100.00
59608;BME280;45426;44.726;10.390;2023-01-30T04:24:52;101123.59;;;-1.77;100.00
59608;BME280;45426;44.726;10.390;2023-01-30T04:27:18;101113.63;;;-1.81;100.00
59608;BME280;45426;44.726;10.390;2023-01-30T04:29:43;101112.56;;;-1.68;100.00
59608;BME280;45426;44.726;10.390;2023-01-30T04:32:09;101109.41;;;-1.53;100.00
59608;BME280;45426;44.726;10.390;2023-01-30T04:34:34;101108.63;;;-1.66;100.00
59608;BME280;45426;44.726;10.390;2023-01-30T04:36:59;101111.41;;;-1.49;100.00
59608;BME280;45426;44.726;10.390;2023-01-30T04:39:25;101110.97;;;-1.69;100.00
59608;BME280;45426;44.726;10.390;2023-01-30T04:41:50;101116.88;;;-1.67;100.00
59608;BME280;45426;44.726;10.390;2023-01-30T04:44:16;101112.91;;;-1.65;100.00
59608;BME280;45426;44.726;10.390;2023-01-30T04:46:41;101100.66;;;-1.66;100.00
59608;BME280;45426;44.726;10.390;2023-01-30T04:49:09;101095.56;;;-1.91;100.00
59608;BME280;45426;44.726;10.390;2023-01-30T04:51:34;101088.50;;;-1.97;100.00
59608;BME280;45426;44.726;10.390;2023-01-30T04:54:00;101086.56;;;-2.02;100.00
59608;BME280;45426;44.726;10.390;2023-01-30T04:56:25;101074.50;;;-2.16;100.00
59608;BME280;45426;44.726;10.390;2023-01-30T04:58:51;101088.63;;;-2.27;100.00
59608;BME280;45426;44.726;10.390;2023-01-30T05:03:54;101061.53;;;-2.12;100.00
59608;BME280;45426;44.726;10.390;2023-01-30T05:06:21;101057.38;;;-2.08;100.00
59608;BME280;45426;44.726;10.390;2023-01-30T05:08:48;101048.69;;;-1.92;100.00
59608;BME280;45426;44.726;10.390;2023-01-30T05:11:13;101042.28;;;-1.79;100.00
59608;BME280;45426;44.726;10.390;2023-01-30T05:13:39;101037.84;;;-1.62;100.00
59608;BME280;45426;44.726;10.390;2023-01-30T05:16:05;101045.34;;;-1.47;100.00
59608;BME280;45426;44.726;10.390;2023-01-30T05:18:30;101045.34;;;-1.18;100.00
59608;BME280;45426;44.726;10.390;2023-01-30T05:21:10;101041.75;;;-1.12;100.00
59608;BME280;45426;44.726;10.390;2023-01-30T05:23:36;101039.84;;;-1.28;100.00
59608;BME280;45426;44.726;10.390;2023-01-30T05:26:02;101035.00;;;-1.43;100.00
59608;BME280;45426;44.726;10.390;2023-01-30T05:28:28;101036.63;;;-1.13;100.00
59608;BME280;45426;44.726;10.390;2023-01-30T05:30:54;101041.34;;;-1.04;100.00
59608;BME280;45426;44.726;10.390;2023-01-30T05:33:24;101042.31;;;-1.10;100.00
59608;BME280;45426;44.726;10.390;2023-01-30T05:35:49;101041.03;;;-0.90;100.00
59608;BME280;45426;44.726;10.390;2023-01-30T05:38:15;101039.66;;;-0.93;100.00
59608;BME280;45426;44.726;10.390;2023-01-30T05:40:41;101045.19;;;-0.49;100.00
59608;BME280;45426;44.726;10.390;2023-01-30T05:43:06;101052.75;;;-1.49;100.00
59608;BME280;45426;44.726;10.390;2023-01-30T05:45:32;101058.47;;;-1.57;100.00
59608;BME280;45426;44.726;10.390;2023-01-30T05:47:57;101061.22;;;-1.52;100.00
59608;BME280;45426;44.726;10.390;2023-01-30T05:50:23;101071.06;;;-1.52;100.00
59608;BME280;45426;44.726;10.390;2023-01-30T05:52:48;101077.53;;;-0.79;100.00
59608;BME280;45426;44.726;10.390;2023-01-30T05:55:13;101084.31;;;-1.17;100.00
59608;BME280;45426;44.726;10.390;2023-01-30T05:57:39;101085.09;;;-1.45;100.00
59608;BME280;45426;44.726;10.390;2023-01-30T06:00:05;101092.88;;;-1.91;100.00
59608;BME280;45426;44.726;10.390;2023-01-30T06:02:30;101096.72;;;-1.23;100.00
59608;BME280;45426;44.726;10.390;2023-01-30T06:04:56;101094.75;;;-1.15;100.00
59608;BME280;45426;44.726;10.390;2023-01-30T06:07:22;101104.72;;;-1.23;100.00
59608;BME280;45426;44.726;10.390;2023-01-30T06:09:47;101107.06;;;-0.98;100.00
59608;BME280;45426;44.726;10.390;2023-01-30T06:12:13;101112.81;;;-1.70;100.00
59608;BME280;45426;44.726;10.390;2023-01-30T06:14:38;101119.88;;;-1.64;100.00
59608;BME280;45426;44.726;10.390;2023-01-30T06:17:03;101133.28;;;-2.29;100.00
59608;BME280;45426;44.726;10.390;2023-01-30T06:19:29;101133.22;;;-2.53;100.00
59608;BME280;45426;44.726;10.390;2023-01-30T06:21:54;101133.16;;;-2.23;100.00
59608;BME280;45426;44.726;10.390;2023-01-30T06:24:20;101137.72;;;-1.88;100.00
59608;BME280;45426;44.726;10.390;2023-01-30T06:26:45;101129.72;;;-1.64;100.00
59608;BME280;45426;44.726;10.390;2023-01-30T06:29:10;101139.50;;;-1.29;100.00
59608;BME280;45426;44.726;10.390;2023-01-30T06:31:36;101128.84;;;-1.18;100.00
59608;BME280;45426;44.726;10.390;2023-01-30T06:34:01;101141.09;;;-1.17;100.00
59608;BME280;45426;44.726;10.390;2023-01-30T06:36:27;101146.03;;;-0.96;100.00
59608;BME280;45426;44.726;10.390;2023-01-30T06:38:52;101145.13;;;-1.02;100.00
59608;BME280;45426;44.726;10.390;2023-01-30T06:41:18;101153.25;;;-1.09;100.00
59608;BME280;45426;44.726;10.390;2023-01-30T06:43:43;101149.66;;;-1.03;100.00
59608;BME280;45426;44.726;10.390;2023-01-30T06:46:09;101142.63;;;-0.80;100.00
59608;BME280;45426;44.726;10.390;2023-01-30T06:48:34;101138.94;;;-0.91;100.00
59608;BME280;45426;44.726;10.390;2023-01-30T06:51:00;101138.31;;;-0.81;100.00
59608;BME280;45426;44.726;10.390;2023-01-30T06:53:25;101127.47;;;-0.46;100.00
59608;BME280;45426;44.726;10.390;2023-01-30T06:55:56;101136.28;;;-0.11;100.00
59608;BME280;45426;44.726;10.390;2023-01-30T06:58:21;101132.09;;;0.10;100.00
59608;BME280;45426;44.726;10.390;2023-01-30T07:00:47;101118.75;;;-0.07;100.00
59608;BME280;45426;44.726;10.390;2023-01-30T07:03:14;101122.97;;;0.28;100.00
59608;BME280;45426;44.726;10.390;2023-01-30T07:05:41;101126.34;;;0.79;100.00
59608;BME280;45426;44.726;10.390;2023-01-30T07:08:07;101119.56;;;1.21;100.00
59608;BME280;45426;44.726;10.390;2023-01-30T07:10:32;101101.56;;;2.13;100.00
59608;BME280;45426;44.726;10.390;2023-01-30T07:12:59;101097.63;;;1.51;100.00
59608;BME280;45426;44.726;10.390;2023-01-30T07:15:25;101098.53;;;2.52;100.00
59608;BME280;45426;44.726;10.390;2023-01-30T07:17:50;101089.78;;;2.72;100.00
59608;BME280;45426;44.726;10.390;2023-01-30T07:20:16;101092.34;;;3.45;100.00
59608;BME280;45426;44.726;10.390;2023-01-30T07:22:41;101080.72;;;2.88;100.00
59608;BME280;45426;44.726;10.390;2023-01-30T07:25:07;101077.31;;;3.60;100.00
59608;BME280;45426;44.726;10.390;2023-01-30T07:27:33;101068.56;;;2.65;100.00
59608;BME280;45426;44.726;10.390;2023-01-30T07:29:58;101071.41;;;3.22;100.00
59608;BME280;45426;44.726;10.390;2023-01-30T07:32:24;101074.53;;;4.16;100.00
59608;BME280;45426;44.726;10.390;2023-01-30T07:34:49;101082.34;;;2.95;100.00
59608;BME280;45426;44.726;10.390;2023-01-30T07:37:15;101086.53;;;2.65;100.00
59608;BME280;45426;44.726;10.390;2023-01-30T07:39:40;101088.22;;;2.81;100.00
59608;BME280;45426;44.726;10.390;2023-01-30T07:42:06;101087.66;;;2.79;100.00
59608;BME280;45426;44.726;10.390;2023-01-30T07:44:32;101085.38;;;2.45;100.00
59608;BME280;45426;44.726;10.390;2023-01-30T07:46:58;101082.16;;;2.43;100.00
59608;BME280;45426;44.726;10.390;2023-01-30T07:49:24;101074.66;;;2.50;100.00
59608;BME280;45426;44.726;10.390;2023-01-30T07:51:50;101080.53;;;2.42;100.00
59608;BME280;45426;44.726;10.390;2023-01-30T07:54:16;101076.97;;;2.84;100.00
59608;BME280;45426;44.726;10.390;2023-01-30T07:56:41;101061.72;;;3.41;100.00
59608;BME280;45426;44.726;10.390;2023-01-30T07:59:07;101044.72;;;4.07;100.00
59608;BME280;45426;44.726;10.390;2023-01-30T08:01:34;101036.63;;;4.23;100.00
59608;BME280;45426;44.726;10.390;2023-01-30T08:03:59;101038.91;;;4.55;100.00
59608;BME280;45426;44.726;10.390;2023-01-30T08:06:25;101036.44;;;6.50;100.00
59608;BME280;45426;44.726;10.390;2023-01-30T08:08:50;101032.09;;;6.92;100.00
59608;BME280;45426;44.726;10.390;2023-01-30T08:11:15;101031.53;;;5.50;100.00
59608;BME280;45426;44.726;10.390;2023-01-30T08:13:42;101028.03;;;6.32;100.00
59608;BME280;45426;44.726;10.390;2023-01-30T08:16:07;101015.16;;;7.38;100.00
59608;BME280;45426;44.726;10.390;2023-01-30T08:18:34;101017.63;;;6.83;100.00
59608;BME280;45426;44.726;10.390;2023-01-30T08:21:01;101024.88;;;9.50;100.00
59608;BME280;45426;44.726;10.390;2023-01-30T08:23:27;101009.31;;;14.27;100.00
59608;BME280;45426;44.726;10.390;2023-01-30T08:25:54;101006.69;;;13.02;100.00
59608;BME280;45426;44.726;10.390;2023-01-30T08:28:19;101006.38;;;12.02;100.00
59608;BME280;45426;44.726;10.390;2023-01-30T08:30:45;101005.03;;;9.19;100.00
59608;BME280;45426;44.726;10.390;2023-01-30T08:33:11;101009.72;;;9.27;100.00
59608;BME280;45426;44.726;10.390;2023-01-30T08:35:36;100995.63;;;8.29;100.00
59608;BME280;45426;44.726;10.390;2023-01-30T08:38:05;100984.50;;;11.25;100.00
59608;BME280;45426;44.726;10.390;2023-01-30T08:40:31;101005.53;;;7.32;100.00
59608;BME280;45426;44.726;10.390;2023-01-30T08:42:56;101000.69;;;6.58;100.00
59608;BME280;45426;44.726;10.390;2023-01-30T08:45:22;101008.19;;;5.99;100.00
59608;BME280;45426;44.726;10.390;2023-01-30T08:47:47;101012.38;;;5.81;100.00
59608;BME280;45426;44.726;10.390;2023-01-30T08:50:12;100992.16;;;6.08;100.00
59608;BME280;45426;44.726;10.390;2023-01-30T08:52:38;100983.47;;;6.73;100.00
59608;BME280;45426;44.726;10.390;2023-01-30T08:55:04;100978.22;;;5.71;100.00
59608;BME280;45426;44.726;10.390;2023-01-30T08:57:29;100971.09;;;5.56;100.00
59608;BME280;45426;44.726;10.390;2023-01-30T08:59:56;100956.03;;;6.66;100.00
59608;BME280;45426;44.726;10.390;2023-01-30T09:02:22;100957.31;;;7.39;100.00
59608;BME280;45426;44.726;10.390;2023-01-30T09:04:47;100943.50;;;7.54;100.00
59608;BME280;45426;44.726;10.390;2023-01-30T09:07:12;100932.47;;;8.20;100.00
59608;BME280;45426;44.726;10.390;2023-01-30T09:09:38;100922.22;;;9.12;100.00
59608;BME280;45426;44.726;10.390;2023-01-30T09:12:04;100920.94;;;10.74;100.00
59608;BME280;45426;44.726;10.390;2023-01-30T09:14:29;100933.00;;;11.29;100.00
59608;BME280;45426;44.726;10.390;2023-01-30T09:16:54;100930.94;;;11.17;100.00
59608;BME280;45426;44.726;10.390;2023-01-30T09:19:21;100931.53;;;11.78;100.00
59608;BME280;45426;44.726;10.390;2023-01-30T09:21:51;100936.91;;;10.40;100.00
59608;BME280;45426;44.726;10.390;2023-01-30T09:24:17;100929.34;;;10.28;100.00
59608;BME280;45426;44.726;10.390;2023-01-30T09:26:42;100940.06;;;11.12;100.00
59608;BME280;45426;44.726;10.390;2023-01-30T09:29:12;100960.53;;;9.82;100.00
59608;BME280;45426;44.726;10.390;2023-01-30T09:31:39;100957.97;;;9.77;100.00
59608;BME280;45426;44.726;10.390;2023-01-30T09:34:06;100965.53;;;8.59;100.00
59608;BME280;45426;44.726;10.390;2023-01-30T09:36:32;100948.50;;;8.44;100.00
59608;BME280;45426;44.726;10.390;2023-01-30T09:38:57;100944.56;;;8.36;100.00
59608;BME280;45426;44.726;10.390;2023-01-30T09:47:13;100936.69;;;7.43;100.00
59608;BME280;45426;44.726;10.390;2023-01-30T09:55:24;100930.75;;;12.29;100.00
59608;BME280;45426;44.726;10.390;2023-01-30T09:57:51;100929.28;;;15.23;100.00
59608;BME280;45426;44.726;10.390;2023-01-30T10:00:23;100943.75;;;15.08;100.00
59608;BME280;45426;44.726;10.390;2023-01-30T10:05:50;100946.03;;;10.71;100.00
59608;BME280;45426;44.726;10.390;2023-01-30T10:20:09;100918.66;;;11.58;100.00
59608;BME280;45426;44.726;10.390;2023-01-30T10:22:48;100910.56;;;13.63;100.00
59608;BME280;45426;44.726;10.390;2023-01-30T10:28:13;100916.03;;;13.88;100.00
59608;BME280;45426;44.726;10.390;2023-01-30T10:30:46;100922.31;;;14.29;100.00
59608;BME280;45426;44.726;10.390;2023-01-30T10:33:19;100919.78;;;13.83;100.00
59608;BME280;45426;44.726;10.390;2023-01-30T10:35:49;100924.00;;;12.35;100.00
59608;BME280;45426;44.726;10.390;2023-01-30T10:38:43;100926.16;;;11.14;100.00
59608;BME280;45426;44.726;10.390;2023-01-30T10:44:11;100916.78;;;9.75;100.00
59608;BME280;45426;44.726;10.390;2023-01-30T10:55:23;100877.16;;;10.32;100.00
59608;BME280;45426;44.726;10.390;2023-01-30T11:00:42;100878.25;;;10.74;100.00
59608;BME280;45426;44.726;10.390;2023-01-30T11:06:02;100875.03;;;10.28;100.00
59608;BME280;45426;44.726;10.390;2023-01-30T11:08:31;100853.28;;;10.81;100.00
59608;BME280;45426;44.726;10.390;2023-01-30T11:11:01;100844.06;;;10.12;100.00
59608;BME280;45426;44.726;10.390;2023-01-30T11:13:44;100825.78;;;11.30;100.00
59608;BME280;45426;44.726;10.390;2023-01-30T11:16:09;100812.56;;;10.63;100.00
59608;BME280;45426;44.726;10.390;2023-01-30T11:18:46;100801.25;;;10.44;100.00
59608;BME280;45426;44.726;10.390;2023-01-30T11:21:24;100792.31;;;10.00;100.00
59608;BME280;45426;44.726;10.390;2023-01-30T11:23:50;100798.53;;;9.83;100.00
59608;BME280;45426;44.726;10.390;2023-01-30T11:26:33;100782.22;;;10.26;100.00
59608;BME280;45426;44.726;10.390;2023-01-30T11:29:14;100784.88;;;10.79;100.00
59608;BME280;45426;44.726;10.390;2023-01-30T11:31:40;100779.78;;;10.68;100.00
59608;BME280;45426;44.726;10.390;2023-01-30T11:34:15;100782.22;;;10.61;100.00
59608;BME280;45426;44.726;10.390;2023-01-30T11:36:41;100785.19;;;10.77;100.00
59608;BME280;45426;44.726;10.390;2023-01-30T11:44:27;100801.91;;;10.32;100.00
59608;BME280;45426;44.726;10.390;2023-01-30T11:46:53;100798.19;;;10.54;100.00
59608;BME280;45426;44.726;10.390;2023-01-30T11:49:19;100781.53;;;10.73;100.00
59608;BME280;45426;44.726;10.390;2023-01-30T11:51:47;100764.03;;;10.18;100.00
59608;BME280;45426;44.726;10.390;2023-01-30T11:54:19;100750.06;;;10.63;100.00
59608;BME280;45426;44.726;10.390;2023-01-30T11:57:05;100735.31;;;10.00;100.00
59608;BME280;45426;44.726;10.390;2023-01-30T11:59:44;100727.47;;;9.37;100.00
59608;BME280;45426;44.726;10.390;2023-01-30T12:02:32;100713.41;;;8.78;100.00
59608;BME280;45426;44.726;10.390;2023-01-30T12:05:04;100710.56;;;9.75;100.00
59608;BME280;45426;44.726;10.390;2023-01-30T12:07:33;100713.59;;;9.74;100.00
59608;BME280;45426;44.726;10.390;2023-01-30T12:10:00;100683.88;;;10.03;100.00
59608;BME280;45426;44.726;10.390;2023-01-30T12:12:52;100668.50;;;10.34;100.00
59608;BME280;45426;44.726;10.390;2023-01-30T12:18:11;100675.41;;;8.29;100.00
59608;BME280;45426;44.726;10.390;2023-01-30T12:20:48;100669.13;;;8.42;100.00
59608;BME280;45426;44.726;10.390;2023-01-30T12:25:59;100660.38;;;10.34;100.00
59608;BME280;45426;44.726;10.390;2023-01-30T12:31:10;100657.97;;;10.23;100.00
59608;BME280;45426;44.726;10.390;2023-01-30T12:33:38;100665.75;;;10.51;100.00
59608;BME280;45426;44.726;10.390;2023-01-30T12:39:44;100631.88;;;9.75;100.00
59608;BME280;45426;44.726;10.390;2023-01-30T12:42:00;100626.56;;;8.83;100.00
59608;BME280;45426;44.726;10.390;2023-01-30T13:04:46;100613.56;;;10.37;100.00
59608;BME280;45426;44.726;10.390;2023-01-30T13:13:29;100607.25;;;10.54;100.00
59608;BME280;45426;44.726;10.390;2023-01-30T13:15:39;100603.91;;;10.48;100.00
59608;BME280;45426;44.726;10.390;2023-01-30T13:18:17;100606.09;;;10.07;100.00
59608;BME280;45426;44.726;10.390;2023-01-30T13:20:50;100595.38;;;10.58;100.00
59608;BME280;45426;44.726;10.390;2023-01-30T13:23:38;100560.25;;;10.15;100.00
59608;BME280;45426;44.726;10.390;2023-01-30T13:26:44;100555.22;;;9.96;100.00
59608;BME280;45426;44.726;10.390;2023-01-30T13:29:31;100545.75;;;9.55;100.00
59608;BME280;45426;44.726;10.390;2023-01-30T13:31:56;100530.66;;;9.83;100.00
59608;BME280;45426;44.726;10.390;2023-01-30T13:34:32;100515.22;;;9.75;100.00
59608;BME280;45426;44.726;10.390;2023-01-30T13:37:07;100513.31;;;10.14;100.00
59608;BME280;45426;44.726;10.390;2023-01-30T13:39:57;100507.03;;;10.31;100.00
59608;BME280;45426;44.726;10.390;2023-01-30T13:42:53;100520.00;;;10.17;100.00
59608;BME280;45426;44.726;10.390;2023-01-30T13:45:41;100522.59;;;9.66;100.00
59608;BME280;45426;44.726;10.390;2023-01-30T13:54:01;100532.81;;;9.69;100.00
59608;BME280;45426;44.726;10.390;2023-01-30T13:56:36;100526.84;;;9.84;100.00
59608;BME280;45426;44.726;10.390;2023-01-30T13:59:24;100540.19;;;9.42;100.00
59608;BME280;45426;44.726;10.390;2023-01-30T14:09:36;100499.25;;;9.82;100.00
59608;BME280;45426;44.726;10.390;2023-01-30T14:12:05;100497.41;;;9.57;100.00
59608;BME280;45426;44.726;10.390;2023-01-30T14:14:34;100495.69;;;9.35;100.00
59608;BME280;45426;44.726;10.390;2023-01-30T14:19:34;100478.41;;;9.65;100.00
59608;BME280;45426;44.726;10.390;2023-01-30T14:22:25;100482.44;;;9.50;100.00
59608;BME280;45426;44.726;10.390;2023-01-30T14:39:59;100465.75;;;9.05;100.00
59608;BME280;45426;44.726;10.390;2023-01-30T14:42:27;100459.97;;;9.32;100.00
59608;BME280;45426;44.726;10.390;2023-01-30T14:45:14;100460.66;;;8.77;100.00
59608;BME280;45426;44.726;10.390;2023-01-30T14:47:41;100466.88;;;8.95;100.00
59608;BME280;45426;44.726;10.390;2023-01-30T14:50:20;100467.19;;;9.02;100.00
59608;BME280;45426;44.726;10.390;2023-01-30T14:52:47;100471.19;;;9.13;100.00
59608;BME280;45426;44.726;10.390;2023-01-30T14:55:20;100457.19;;;8.94;100.00
59608;BME280;45426;44.726;10.390;2023-01-30T14:57:52;100446.66;;;8.84;100.00
59608;BME280;45426;44.726;10.390;2023-01-30T15:00:23;100455.41;;;8.98;100.00
59608;BME280;45426;44.726;10.390;2023-01-30T15:02:53;100452.53;;;8.77;100.00
59608;BME280;45426;44.726;10.390;2023-01-30T15:05:30;100445.53;;;8.85;100.00
59608;BME280;45426;44.726;10.390;2023-01-30T15:08:14;100446.34;;;8.85;100.00
59608;BME280;45426;44.726;10.390;2023-01-30T15:10:50;100455.56;;;8.84;100.00
59608;BME280;45426;44.726;10.390;2023-01-30T15:18:36;100447.59;;;8.44;100.00
59608;BME280;45426;44.726;10.390;2023-01-30T15:28:54;100439.16;;;8.81;100.00